Toone, TN (38381)

2:02 AM CDT en Julio 30, 2014 (GMT -0500)
McKellar-Sipes Regional (KMKL) Alt 433 ft | 35.59 °N, 88.92 °W | Change Station

Current weather conditions updated 9 minutes ago

Clear
Despejado
57 ° F
Sensación térmica 57 ° F
N
0
Viento Variable Viento desde Norte

Hoy se prevé un día Más cálido que ayer.

Hoy
Alta -- | Baja -- ° F
--% Posibilidad de precipitaciones
Ayer
Alta -- | Baja -- ° F
Precip. -- pul
6:02 AM 8:00 PM
Creciente, 10% visible
Presión 30.09 pul
Visibilidad 10.0 Millas
Nubes Despejado
Punto de rocío 55 ° F
Humedad 93%
Precipitaciones 0.00 pul
Espesor de la nieve No disponible.
UV 0 de una escala de 12
Polen 6.00 de una escala de 12
Calidad del aire No disponible.
Flu Activity No disponible.
METAR KMKL 300653Z AUTO 00000KT 10SM CLR 14/13 A3010 RMK AO2 SLP190 T01390128

More Conditions Fewer Conditions

Presión 30.09 pul
Visibilidad 10.0 Millas
Nubes Despejado
Punto de rocío 55 ° F
Humedad 93%
Precipitaciones 0.00 pul
Espesor de la nieve No disponible.
UV 0 de una escala de 12
Polen 6.00 de una escala de 12
Calidad del aire No disponible.
Flu Activity No disponible.
METAR KMKL 300653Z AUTO 00000KT 10SM CLR 14/13 A3010 RMK AO2 SLP190 T01390128

More Conditions Fewer Conditions

10-Day Weather Forecast

Almanac

Astronomía

Jul. 30, 2014 Salida Puesta
Hora real 6:02 AM CDT 8:00 PM CDT
Crepúsculo civil 5:34 AM CDT 8:29 PM CDT
Crepúsculo náutico 5:00 AM CDT 9:03 PM CDT
Crepúsculo astronómico 4:24 AM CDT 9:39 PM CDT
Luna 9:25 AM CDT 9:53 PM CDT
Horas de luz 14h 54m
Horas de luz
13h 58m
Tomorrow will be 1m 36s shorter.
Creciente, 10% of the Moon is Illuminated
Hoy
Creciente
Ago 3
Cuarto creciente
Ago 10
Luna llena
Ago 17
Cuarto menguante
Ago 25
Nueva

Extremos de hoy

Máximos del estado Bajos del estado

Community

WunderPhotos

Upload Photos

1,739,022 ¡fotos cargadas!

WunderBlogs® & News

By Dr. Jeff Masters
Director of Meteorology, Weather Underground
By Kari Strenfel
Meteorologist, Weather Underground
By Christopher C. Burt
Weather Historian, Weather Underground
July 29, 2014
July 29, 2014
July 29, 2014

Nearby

Grosos de nieve

Estación Profundido Altura
No tenemos constancia de nieve nueva.

Actividad de terremotos

Ciudad Distance Mag. Tiempo y dato
No hay informes recientes de la actividad sísmica.
Magnitud mínima muestra es 2,5.

Temperaturas de aguas costeras

Lugar Temperatura
Sin partes meteorológicos de las estaciones

Estaciones meteorológicas cercanas

Ubicación de la estación Temp. Punto de rocío Humedad Viento Precip. Alt Actualizado Tipo
Woods, Henderson, TN 58.1 ° F 56 ° F 93% Norte  a  0.0 mph - / hr 472 ft 1:14 AM CDT Normal
Union University, Jackson, TN 61.8 ° F 56 ° F 82% NNO  a  0.0 mph - / hr 476 ft 2:01 AM CDT Normal
North Park, Jackson, TN 58.4 ° F 57 ° F 94% ONO  a  0.0 mph 0.00 pul / hr 423 ft 2:00 AM CDT Normal

Show More Stations Show Fewer Stations